Time;durP1;ratioP1;P1;durP2;ratioP2;P2;SDS_P1;SDS_P2;PMS_P1;PMS_P2;Temp;Humidity;BMP_temperature;BMP_pressure;BME280_temperature;BME280_humidity;BME280_pressure;Samples;Min_cycle;Max_cycle;Signal;HPM_P1;HPM_P2
2022/09/23 00:01:06;;;;;;;;;;;;;;;20.97;65.12;97167.61;575997;246;68847;-70
2022/09/23 00:03:34;;;;;;;;;;;;;;;20.97;65.25;97164.94;579042;245;68699;-70
2022/09/23 00:06:02;;;;;;;;;;;;;;;20.96;65.07;97164.14;579338;245;64978;-70
2022/09/23 00:08:30;;;;;;;;;;;;;;;20.96;65.07;97153.46;579339;245;66239;-68
2022/09/23 00:10:59;;;;;;;;;;;;;;;20.97;65.13;97159.59;579308;241;68489;-68
2022/09/23 00:13:27;;;;;;;;;;;;;;;20.96;65.07;97158.00;579244;245;62933;-68
2022/09/23 00:15:54;;;;;;;;;;;;;;;20.96;65.25;97147.32;579328;245;66691;-68
2022/09/23 00:18:22;;;;;;;;;;;;;;;20.96;65.33;97149.99;579324;245;66690;-68
2022/09/23 00:20:49;;;;;;;;;;;;;;;20.95;65.26;97149.20;579327;245;65043;-68
2022/09/23 00:23:17;;;;;;;;;;;;;;;20.95;65.20;97141.18;579291;245;66642;-68
2022/09/23 00:25:44;;;;;;;;;;;;;;;20.95;65.25;97141.18;579346;245;66685;-68
2022/09/23 00:28:12;;;;;;;;;;;;;;;20.95;65.14;97141.18;579306;245;65095;-68
2022/09/23 00:30:40;;;;;;;;;;;;;;;20.94;65.27;97139.56;579316;245;66701;-68
2022/09/23 00:33:08;;;;;;;;;;;;;;;20.95;65.12;97143.85;579294;245;68886;-68
2022/09/23 00:35:37;;;;;;;;;;;;;;;20.94;65.25;97139.56;579332;245;65543;-68
2022/09/23 00:38:04;;;;;;;;;;;;;;;20.94;65.27;97136.89;579290;245;68879;-68
2022/09/23 00:40:32;;;;;;;;;;;;;;;20.94;65.11;97133.42;579362;245;66479;-68
2022/09/23 00:42:59;;;;;;;;;;;;;;;20.94;65.35;97133.42;579309;245;62897;-68
2022/09/23 00:45:27;;;;;;;;;;;;;;;20.93;65.05;97132.63;579302;245;66686;-68
2022/09/23 00:47:57;;;;;;;;;;;;;;;20.93;65.32;97127.28;579296;245;69096;-68
2022/09/23 00:50:26;;;;;;;;;;;;;;;20.94;65.38;97130.75;579153;245;64434;-68
2022/09/23 00:52:55;;;;;;;;;;;;;;;20.93;65.37;97137.97;579282;245;68891;-68
2022/09/23 00:55:24;;;;;;;;;;;;;;;20.92;65.15;97131.00;579315;245;66711;-68
2022/09/23 00:57:53;;;;;;;;;;;;;;;20.91;65.37;97129.41;579305;245;65113;-70
2022/09/23 01:00:21;;;;;;;;;;;;;;;20.92;65.37;97133.67;579281;245;68912;-70
2022/09/23 01:02:49;;;;;;;;;;;;;;;20.92;65.35;97130.20;579284;245;68820;-70
2022/09/23 01:05:16;;;;;;;;;;;;;;;20.92;65.32;97130.20;579359;245;65105;-70
2022/09/23 01:07:44;;;;;;;;;;;;;;;20.92;65.35;97135.55;579325;245;68488;-70
2022/09/23 01:10:13;;;;;;;;;;;;;;;20.92;65.07;97135.55;579301;245;68683;-70
2022/09/23 01:12:42;;;;;;;;;;;;;;;20.91;65.23;97142.77;579288;245;65083;-70
2022/09/23 01:15:11;;;;;;;;;;;;;;;20.91;65.67;97139.30;579043;245;66983;-68
2022/09/23 01:17:47;;;;;;;;;;;;;;;20.91;65.29;97145.44;579310;245;66734;-68
2022/09/23 01:20:16;;;;;;;;;;;;;;;20.91;65.76;97139.30;579343;245;63840;-68
2022/09/23 01:22:45;;;;;;;;;;;;;;;20.90;65.45;97143.84;577165;245;68828;-68
2022/09/23 01:25:32;;;;;;;;;;;;;;;20.90;65.52;97143.84;579163;245;66672;-67
2022/09/23 01:28:04;;;;;;;;;;;;;;;20.90;65.49;97141.17;578543;245;63026;-68
2022/09/23 01:30:37;;;;;;;;;;;;;;;20.90;65.79;97148.36;578943;245;68903;-70
2022/09/23 01:33:07;;;;;;;;;;;;;;;20.89;65.51;97139.55;579284;245;68551;-68
2022/09/23 01:35:39;;;;;;;;;;;;;;;20.89;65.29;97136.88;579184;245;65154;-70
2022/09/23 01:38:08;;;;;;;;;;;;;;;20.90;65.63;97143.84;579188;245;68951;-70
2022/09/23 01:40:41;;;;;;;;;;;;;;;20.89;65.85;97146.77;579067;245;66750;-70
2022/09/23 01:43:10;;;;;;;;;;;;;;;20.89;65.55;97142.23;579305;245;64918;-70
2022/09/23 01:45:39;;;;;;;;;;;;;;;20.88;65.52;97143.30;579239;245;69074;-70
2022/09/23 01:48:12;;;;;;;;;;;;;;;20.87;65.91;97136.38;579229;245;68690;-70
2022/09/23 01:50:56;;;;;;;;;;;;;;;20.87;65.58;97133.70;579335;245;65026;-70
2022/09/23 01:53:25;;;;;;;;;;;;;;;20.87;65.91;97136.38;579289;245;66700;-68
2022/09/23 01:55:56;;;;;;;;;;;;;;;20.86;65.79;97140.09;579228;245;66449;-68
2022/09/23 01:58:28;;;;;;;;;;;;;;;20.86;65.74;97140.09;579318;245;63877;-68
2022/09/23 02:00:59;;;;;;;;;;;;;;;20.86;66.10;97140.09;579046;245;69057;-68
2022/09/23 02:03:30;;;;;;;;;;;;;;;20.86;66.00;97145.44;579254;245;67013;-68
2022/09/23 02:06:03;;;;;;;;;;;;;;;20.87;65.88;97148.91;578664;245;65430;-68
2022/09/23 02:08:38;;;;;;;;;;;;;;;20.85;65.83;97141.17;579093;245;66520;-68
2022/09/23 02:11:10;;;;;;;;;;;;;;;20.85;65.68;97151.86;579096;245;66696;-68
2022/09/23 02:13:48;;;;;;;;;;;;;;;20.85;65.90;97151.86;579338;245;64997;-68
2022/09/23 02:16:23;;;;;;;;;;;;;;;20.86;65.89;97150.78;579309;245;68920;-68
2022/09/23 02:18:55;;;;;;;;;;;;;;;20.86;66.25;97152.66;579332;245;68993;-68
2022/09/23 02:21:24;;;;;;;;;;;;;;;20.85;65.81;97157.20;579400;245;63046;-68
2022/09/23 02:23:53;;;;;;;;;;;;;;;20.85;65.87;97151.86;579321;245;68435;-68
2022/09/23 02:26:22;;;;;;;;;;;;;;;20.85;65.99;97157.20;579333;245;68671;-68
2022/09/23 02:28:51;;;;;;;;;;;;;;;20.84;66.21;97160.92;579282;245;62999;-68
2022/09/23 02:31:36;;;;;;;;;;;;;;;20.83;66.50;97165.47;579181;245;66893;-68
2022/09/23 02:34:22;;;;;;;;;;;;;;;20.83;65.88;97164.67;579321;245;68710;-68
2022/09/23 02:36:57;;;;;;;;;;;;;;;20.83;66.37;97162.80;579327;245;65302;-68
2022/09/23 02:39:26;;;;;;;;;;;;;;;20.82;66.75;97163.88;579180;245;69034;-68
2022/09/23 02:41:55;;;;;;;;;;;;;;;20.82;66.59;97168.42;579201;245;69010;-68
2022/09/23 02:44:22;;;;;;;;;;;;;;;20.82;66.31;97165.75;579239;245;65112;-68
2022/09/23 02:46:52;;;;;;;;;;;;;;;20.83;66.12;97172.68;579335;245;66761;-68
2022/09/23 02:49:23;;;;;;;;;;;;;;;20.81;66.23;97166.80;579334;245;68771;-68
2022/09/23 02:51:51;;;;;;;;;;;;;;;20.81;66.21;97172.94;579352;245;65067;-68
2022/09/23 02:54:26;;;;;;;;;;;;;;;20.82;66.48;97176.43;579315;245;68815;-68
2022/09/23 02:56:54;;;;;;;;;;;;;;;20.81;66.43;97177.48;579320;245;66684;-68
2022/09/23 02:59:22;;;;;;;;;;;;;;;20.81;66.92;97183.62;579338;245;65018;-68
2022/09/23 03:01:55;;;;;;;;;;;;;;;20.82;65.75;97179.10;578612;245;68794;-68
2022/09/23 03:04:41;;;;;;;;;;;;;;;20.81;66.16;97182.82;575964;246;68961;-68
2022/09/23 03:07:19;;;;;;;;;;;;;;;20.80;66.09;97182.02;576011;246;65151;-68
2022/09/23 03:09:51;;;;;;;;;;;;;;;20.80;66.52;97182.02;575991;246;68889;-68
2022/09/23 03:12:24;;;;;;;;;;;;;;;20.80;66.54;97183.90;575931;242;68514;-68
2022/09/23 03:14:56;;;;;;;;;;;;;;;20.79;66.76;97180.44;575846;246;65156;-68
2022/09/23 03:17:25;;;;;;;;;;;;;;;20.79;66.40;97183.10;575931;242;68827;-68
2022/09/23 03:19:57;;;;;;;;;;;;;;;20.79;66.25;97179.64;575946;246;69062;-70
2022/09/23 03:22:28;;;;;;;;;;;;;;;20.79;66.41;97180.44;575930;246;65176;-68
2022/09/23 03:24:57;;;;;;;;;;;;;;;20.79;66.49;97179.64;575944;244;69042;-68
2022/09/23 03:27:26;;;;;;;;;;;;;;;20.78;66.83;97183.36;575907;246;68758;-68
2022/09/23 03:29:54;;;;;;;;;;;;;;;20.78;66.71;97186.02;575977;246;62984;-68
2022/09/23 03:32:23;;;;;;;;;;;;;;;20.78;67.14;97183.36;575947;246;68843;-68
2022/09/23 03:34:52;;;;;;;;;;;;;;;20.78;65.84;97194.04;575961;246;66700;-68
2022/09/23 03:37:24;;;;;;;;;;;;;;;20.77;66.58;97193.24;576022;246;65065;-68
2022/09/23 03:39:53;;;;;;;;;;;;;;;20.77;66.59;97190.57;575951;246;68661;-68
2022/09/23 03:42:25;;;;;;;;;;;;;;;20.77;66.54;97200.45;575966;246;68765;-68
2022/09/23 03:44:55;;;;;;;;;;;;;;;20.76;66.49;97194.32;575951;246;65095;-68
2022/09/23 03:47:24;;;;;;;;;;;;;;;20.76;66.57;97196.99;575973;246;69069;-68
2022/09/23 03:49:51;;;;;;;;;;;;;;;20.76;66.62;97196.16;575985;246;68734;-68
2022/09/23 03:52:20;;;;;;;;;;;;;;;20.76;66.54;97201.51;575978;246;65332;-68
2022/09/23 03:54:48;;;;;;;;;;;;;;;20.76;67.08;97204.17;575957;246;66703;-68
2022/09/23 03:57:15;;;;;;;;;;;;;;;20.76;66.83;97205.00;575951;246;68613;-68
2022/09/23 03:59:43;;;;;;;;;;;;;;;20.75;66.87;97206.05;575976;246;63075;-68
2022/09/23 04:02:10;;;;;;;;;;;;;;;20.75;67.09;97210.59;575977;245;68480;-68
2022/09/23 04:04:39;;;;;;;;;;;;;;;20.75;66.99;97206.05;575973;246;66473;-68
2022/09/23 04:07:08;;;;;;;;;;;;;;;20.74;66.99;97204.45;575974;246;65092;-68
2022/09/23 04:09:35;;;;;;;;;;;;;;;20.74;67.03;97214.34;575979;246;66317;-70
2022/09/23 04:12:03;;;;;;;;;;;;;;;20.73;67.12;97207.38;575975;246;68646;-70
2022/09/23 04:14:31;;;;;;;;;;;;;;;20.73;67.49;97207.38;576004;246;65475;-70
2022/09/23 04:16:58;;;;;;;;;;;;;;;20.72;66.51;97205.79;575986;246;68693;-69
2022/09/23 04:19:26;;;;;;;;;;;;;;;20.73;67.01;97207.38;575971;246;68415;-69
2022/09/23 04:21:53;;;;;;;;;;;;;;;20.72;66.97;97206.58;575990;246;65133;-69
2022/09/23 04:24:21;;;;;;;;;;;;;;;20.72;66.90;97208.45;575941;246;68547;-69
2022/09/23 04:26:52;;;;;;;;;;;;;;;20.73;67.07;97207.38;576014;246;68490;-69
2022/09/23 04:29:19;;;;;;;;;;;;;;;20.72;66.80;97214.59;575980;246;65017;-69
2022/09/23 04:31:47;;;;;;;;;;;;;;;20.71;67.03;97204.98;575955;246;69111;-69
2022/09/23 04:34:16;;;;;;;;;;;;;;;20.71;66.15;97204.20;575932;246;68996;-69
2022/09/23 04:36:44;;;;;;;;;;;;;;;20.71;67.12;97210.33;575962;246;63192;-69
2022/09/23 04:39:13;;;;;;;;;;;;;;;20.71;67.21;97204.98;575953;246;66811;-69
2022/09/23 04:41:41;;;;;;;;;;;;;;;20.70;67.07;97197.23;575966;246;68891;-69
2022/09/23 04:44:10;;;;;;;;;;;;;;;20.70;66.87;97203.37;575947;246;64967;-69
2022/09/23 04:46:38;;;;;;;;;;;;;;;20.70;67.40;97207.91;575978;246;66652;-68
2022/09/23 04:49:05;;;;;;;;;;;;;;;20.70;67.25;97215.92;575930;246;68417;-68
2022/09/23 04:51:33;;;;;;;;;;;;;;;20.69;66.91;97209.78;575958;246;65180;-69
2022/09/23 04:54:01;;;;;;;;;;;;;;;20.68;66.71;97205.52;575981;246;68762;-69
2022/09/23 04:56:35;;;;;;;;;;;;;;;20.70;67.11;97221.27;575919;246;68658;-69
2022/09/23 04:59:00;;;;;;;;;;;;;;;20.69;66.62;97222.34;575718;246;65152;-69
2022/09/23 05:01:29;;;;;;;;;;;;;;;20.70;67.12;97221.27;575920;245;69004;-69
2022/09/23 05:04:00;;;;;;;;;;;;;;;20.68;67.91;97216.20;575955;246;66509;-69
2022/09/23 05:06:27;;;;;;;;;;;;;;;20.69;67.29;97222.34;575974;246;65169;-69
2022/09/23 05:08:56;;;;;;;;;;;;;;;20.68;67.08;97215.38;575982;246;68698;-69
2022/09/23 05:11:24;;;;;;;;;;;;;;;20.69;67.63;97225.02;575926;246;68656;-69
2022/09/23 05:13:52;;;;;;;;;;;;;;;20.68;67.98;97223.39;575938;246;62983;-69
2022/09/23 05:16:22;;;;;;;;;;;;;;;20.67;67.08;97224.47;575945;246;69028;-69
2022/09/23 05:18:49;;;;;;;;;;;;;;;20.66;67.35;97218.33;575947;246;68721;-69
2022/09/23 05:21:18;;;;;;;;;;;;;;;20.67;67.30;97214.58;575987;246;63126;-69
2022/09/23 05:23:47;;;;;;;;;;;;;;;20.66;67.63;97212.98;575919;246;69099;-69
2022/09/23 05:26:15;;;;;;;;;;;;;;;20.66;67.64;97212.98;575969;242;68928;-69
2022/09/23 05:28:43;;;;;;;;;;;;;;;20.65;67.13;97222.05;575967;246;63066;-69
2022/09/23 05:31:18;;;;;;;;;;;;;;;20.65;67.42;97221.25;575951;246;66768;-69
2022/09/23 05:33:47;;;;;;;;;;;;;;;20.66;67.65;97228.21;575976;246;66857;-69
2022/09/23 05:36:20;;;;;;;;;;;;;;;20.66;67.77;97228.21;575939;246;63037;-69
2022/09/23 05:38:44;;;;;;;;;;;;;;;20.65;67.78;97221.25;575854;244;66909;-69
2022/09/23 05:41:12;;;;;;;;;;;;;;;20.65;68.08;97221.25;575976;246;68541;-69
2022/09/23 05:43:40;;;;;;;;;;;;;;;20.64;67.44;97225.00;575954;246;65078;-69
2022/09/23 05:46:09;;;;;;;;;;;;;;;20.64;67.87;97219.66;575974;246;66683;-69
2022/09/23 05:48:37;;;;;;;;;;;;;;;20.64;67.52;97225.80;575931;246;67100;-69
2022/09/23 05:51:11;;;;;;;;;;;;;;;20.63;67.59;97224.20;575944;246;63312;-70
2022/09/23 05:53:35;;;;;;;;;;;;;;;20.63;67.53;97226.07;575444;246;69150;-68
2022/09/23 05:56:03;;;;;;;;;;;;;;;20.64;68.21;97230.34;576002;246;66671;-69
2022/09/23 05:58:31;;;;;;;;;;;;;;;20.66;65.33;97228.21;576007;246;63043;-73
2022/09/23 06:00:59;;;;;;;;;;;;;;;20.68;65.24;97231.41;575996;246;68840;-70
2022/09/23 06:03:26;;;;;;;;;;;;;;;20.69;64.64;97223.14;575947;245;68879;-70
2022/09/23 06:05:54;;;;;;;;;;;;;;;20.67;66.16;97235.95;576030;246;62975;-71
2022/09/23 06:08:23;;;;;;;;;;;;;;;20.64;66.54;97231.13;575989;246;68554;-70
2022/09/23 06:10:50;;;;;;;;;;;;;;;20.63;67.00;97236.75;581746;242;68665;-69
2022/09/23 06:13:18;;;;;;;;;;;;;;;20.60;67.06;97232.73;578586;242;63110;-71
2022/09/23 06:15:46;;;;;;;;;;;;;;;20.59;66.48;97237.25;575945;246;67048;-70
2022/09/23 06:18:13;;;;;;;;;;;;;;;20.58;66.99;97238.33;570432;246;68966;-70
2022/09/23 06:20:41;;;;;;;;;;;;;;;20.57;67.85;97236.73;575679;246;65015;-72
2022/09/23 06:23:10;;;;;;;;;;;;;;;20.57;66.25;97234.06;575673;246;68866;-69
2022/09/23 06:25:38;;;;;;;;;;;;;;;20.57;68.44;97230.56;575720;246;68716;-69
2022/09/23 06:28:11;;;;;;;;;;;;;;;20.55;66.87;97230.84;575682;246;65078;-72
2022/09/23 06:30:35;;;;;;;;;;;;;;;20.55;66.02;97228.17;575601;244;68909;-71
2022/09/23 06:33:02;;;;;;;;;;;;;;;20.54;65.62;97223.09;575851;246;68708;-70
2022/09/23 06:35:32;;;;;;;;;;;;;;;20.54;67.24;97231.09;575942;246;65095;-70
2022/09/23 06:38:00;;;;;;;;;;;;;;;20.53;66.62;97222.29;575980;246;68924;-71
2022/09/23 06:40:28;;;;;;;;;;;;;;;20.54;67.64;97226.58;576007;246;66747;-71
2022/09/23 06:42:59;;;;;;;;;;;;;;;20.54;67.71;97220.41;575969;246;63044;-69
2022/09/23 06:45:27;;;;;;;;;;;;;;;20.54;67.69;97226.58;576002;246;66706;-67
2022/09/23 06:47:58;;;;;;;;;;;;;;;20.54;67.55;97223.09;575964;246;68830;-65
2022/09/23 06:50:26;;;;;;;;;;;;;;;20.54;67.71;97223.91;575992;246;65133;-70
2022/09/23 06:52:54;;;;;;;;;;;;;;;20.55;67.59;97211.36;576001;246;68870;-67
2022/09/23 06:55:26;;;;;;;;;;;;;;;20.55;66.45;97219.37;575976;246;68603;-67
2022/09/23 06:58:00;;;;;;;;;;;;;;;20.54;64.81;97221.25;575983;246;63182;-67
2022/09/23 07:00:28;;;;;;;;;;;;;;;20.54;66.79;97220.41;575952;246;68950;-72
2022/09/23 07:02:55;;;;;;;;;;;;;;;20.55;66.92;97217.50;575896;245;69051;-71
2022/09/23 07:05:23;;;;;;;;;;;;;;;20.55;65.40;97222.84;575929;246;65086;-70
2022/09/23 07:07:52;;;;;;;;;;;;;;;20.54;65.65;97226.58;575991;246;68899;-71
2022/09/23 07:10:19;;;;;;;;;;;;;;;20.54;65.49;97225.76;575924;246;66925;-73
2022/09/23 07:12:47;;;;;;;;;;;;;;;20.54;66.97;97220.41;575956;246;65076;-71
2022/09/23 07:15:15;;;;;;;;;;;;;;;20.54;67.61;97220.41;575928;246;68871;-74
2022/09/23 07:17:43;;;;;;;;;;;;;;;20.53;62.71;97226.80;575965;246;68889;-74
2022/09/23 07:20:10;;;;;;;;;;;;;;;20.54;64.10;97225.76;575918;246;64998;-74
2022/09/23 07:22:38;;;;;;;;;;;;;;;20.55;62.68;97230.05;575871;246;68678;-74
2022/09/23 07:25:06;;;;;;;;;;;;;;;20.55;62.73;97236.19;575949;246;68761;-74
2022/09/23 07:27:33;;;;;;;;;;;;;;;20.56;62.66;97234.31;575943;246;65041;-74
2022/09/23 07:30:00;;;;;;;;;;;;;;;20.58;62.30;97240.20;575974;246;69004;-74
2022/09/23 07:32:28;;;;;;;;;;;;;;;20.58;62.51;97241.00;575999;246;68750;-74
2022/09/23 07:34:56;;;;;;;;;;;;;;;20.58;63.50;97234.86;575939;246;65293;-74
2022/09/23 07:37:23;;;;;;;;;;;;;;;20.58;63.44;97238.33;575952;246;69219;-75
2022/09/23 07:39:51;;;;;;;;;;;;;;;20.59;63.17;97239.12;575913;246;66695;-75
2022/09/23 07:42:19;;;;;;;;;;;;;;;20.59;63.33;97236.45;575927;246;65075;-71
2022/09/23 07:44:46;;;;;;;;;;;;;;;20.59;63.73;97237.25;576025;246;68867;-72
2022/09/23 07:47:16;;;;;;;;;;;;;;;20.58;65.88;97235.66;575917;246;66603;-72
2022/09/23 07:49:43;;;;;;;;;;;;;;;20.58;64.12;97234.86;575944;246;65174;-71
2022/09/23 07:52:11;;;;;;;;;;;;;;;20.57;65.18;97228.72;575896;246;68840;-71
2022/09/23 07:54:38;;;;;;;;;;;;;;;20.57;65.96;97233.23;575941;246;66809;-72
2022/09/23 07:57:06;;;;;;;;;;;;;;;20.56;65.23;97234.31;575954;246;65144;-71
2022/09/23 07:59:33;;;;;;;;;;;;;;;20.56;66.87;97242.33;575987;246;69024;-71
2022/09/23 08:02:01;;;;;;;;;;;;;;;20.55;68.01;97238.86;575844;245;68691;-71
2022/09/23 08:04:30;;;;;;;;;;;;;;;20.54;64.78;97241.77;575937;246;65138;-73
2022/09/23 08:06:59;;;;;;;;;;;;;;;20.53;66.44;97243.65;575961;246;66906;-72
2022/09/23 08:09:28;;;;;;;;;;;;;;;20.53;65.49;97240.98;575978;246;68532;-72
2022/09/23 08:11:55;;;;;;;;;;;;;;;20.53;67.68;97240.98;575977;246;65135;-71
2022/09/23 08:14:23;;;;;;;;;;;;;;;20.52;67.80;97244.69;575958;246;68641;-72
2022/09/23 08:16:51;;;;;;;;;;;;;;;20.53;67.51;97250.83;575950;246;68640;-76
2022/09/23 08:19:18;;;;;;;;;;;;;;;20.52;67.99;97255.38;575965;246;63178;-71
2022/09/23 08:21:46;;;;;;;;;;;;;;;20.52;67.92;97258.05;575989;246;68604;-69
2022/09/23 08:24:15;;;;;;;;;;;;;;;20.50;67.28;97256.70;576016;246;68388;-75
2022/09/23 08:26:43;;;;;;;;;;;;;;;20.51;68.72;97251.08;575896;246;65019;-71
2022/09/23 08:29:17;;;;;;;;;;;;;;;20.49;66.96;97247.89;575873;246;68710;-72
2022/09/23 08:31:45;;;;;;;;;;;;;;;20.51;66.49;97258.30;575926;246;68690;-71
2022/09/23 08:34:13;;;;;;;;;;;;;;;20.50;66.21;97246.81;575843;246;63004;-72
2022/09/23 08:36:40;;;;;;;;;;;;;;;20.50;67.21;97240.67;575954;246;66539;-72
2022/09/23 08:39:08;;;;;;;;;;;;;;;20.49;66.79;97245.22;575973;246;66840;-71
2022/09/23 08:41:55;;;;;;;;;;;;;;;20.49;66.05;97234.55;575927;246;63201;-73
2022/09/23 08:44:41;;;;;;;;;;;;;;;20.51;68.21;97231.59;575937;246;69450;-70
2022/09/23 08:47:19;;;;;;;;;;;;;;;20.49;68.15;97229.20;575935;246;66796;-71
2022/09/23 08:49:54;;;;;;;;;;;;;;;20.48;66.50;97232.92;575912;246;65330;-72
2022/09/23 08:52:40;;;;;;;;;;;;;;;20.48;66.58;97229.45;575922;244;66506;-71
2022/09/23 08:55:08;;;;;;;;;;;;;;;20.49;67.33;97233.72;575931;246;68704;-72
2022/09/23 08:57:41;;;;;;;;;;;;;;;20.48;67.34;97237.46;575922;245;65318;-72
2022/09/23 09:00:10;;;;;;;;;;;;;;;20.48;66.77;97222.23;575945;246;68909;-71
2022/09/23 09:02:37;;;;;;;;;;;;;;;20.49;66.90;97220.37;575778;244;68810;-71
2022/09/23 09:05:09;;;;;;;;;;;;;;;20.47;67.73;97215.30;575881;246;63028;-72
2022/09/23 09:07:38;;;;;;;;;;;;;;;20.48;66.77;97216.10;575916;246;68985;-70
2022/09/23 09:10:07;;;;;;;;;;;;;;;20.48;67.77;97216.10;575912;246;68919;-71
2022/09/23 09:12:48;;;;;;;;;;;;;;;20.46;66.73;97213.72;575977;242;63129;-71
2022/09/23 09:15:17;;;;;;;;;;;;;;;20.46;66.62;97216.38;575893;246;68885;-71
2022/09/23 09:18:05;;;;;;;;;;;;;;;20.45;64.80;97206.75;575866;246;68744;-71
2022/09/23 09:20:41;;;;;;;;;;;;;;;20.46;67.17;97208.38;575865;246;63319;-67
2022/09/23 09:23:13;;;;;;;;;;;;;;;20.46;66.99;97213.72;575675;246;68855;-66
2022/09/23 09:25:44;;;;;;;;;;;;;;;20.46;66.57;97208.38;575871;246;66474;-66
2022/09/23 09:28:29;;;;;;;;;;;;;;;20.46;66.64;97212.88;575809;246;63009;-67
2022/09/23 09:30:56;;;;;;;;;;;;;;;20.46;67.41;97210.22;575408;244;68851;-68
2022/09/23 09:33:26;;;;;;;;;;;;;;;20.45;67.39;97208.62;575909;246;69045;-66
2022/09/23 09:35:55;;;;;;;;;;;;;;;20.44;65.70;97210.50;575921;246;63220;-67
2022/09/23 09:38:22;;;;;;;;;;;;;;;20.44;66.82;97202.48;575956;244;66788;-68
2022/09/23 09:40:54;;;;;;;;;;;;;;;20.43;66.88;97208.88;575982;246;49826;-69
2022/09/23 09:43:26;;;;;;;;;;;;;;;20.45;67.89;97208.62;575949;246;63045;-67
2022/09/23 09:46:01;;;;;;;;;;;;;;;20.43;67.02;97214.21;575896;244;66746;-67
2022/09/23 09:48:36;;;;;;;;;;;;;;;20.43;63.50;97224.89;575648;246;66686;-67
2022/09/23 09:51:20;;;;;;;;;;;;;;;20.43;65.00;97224.89;575624;246;63001;-67
2022/09/23 09:53:50;;;;;;;;;;;;;;;20.44;65.96;97220.38;575614;242;68400;-68
2022/09/23 09:56:19;;;;;;;;;;;;;;;20.44;65.67;97223.84;575857;246;66381;-67
2022/09/23 09:58:48;;;;;;;;;;;;;;;20.43;66.25;97219.55;575802;246;65367;-67
2022/09/23 10:01:23;;;;;;;;;;;;;;;20.44;65.94;97223.84;575907;246;69174;-65
2022/09/23 10:03:52;;;;;;;;;;;;;;;20.44;64.59;97223.05;575848;246;68645;-65
2022/09/23 10:06:24;;;;;;;;;;;;;;;20.44;66.09;97223.05;575885;246;62982;-64
2022/09/23 10:09:05;;;;;;;;;;;;;;;20.43;65.25;97214.21;575911;246;68892;-64
2022/09/23 10:11:32;;;;;;;;;;;;;;;20.44;65.08;97220.38;575799;244;66673;-69
2022/09/23 10:14:04;;;;;;;;;;;;;;;20.43;64.98;97214.21;582988;242;63054;-66
2022/09/23 10:16:33;;;;;;;;;;;;;;;20.43;63.35;97218.75;584548;242;66653;-68
2022/09/23 10:19:01;;;;;;;;;;;;;;;20.42;63.58;97215.28;584434;242;66635;-68
2022/09/23 10:21:36;;;;;;;;;;;;;;;20.44;67.94;97218.50;584507;242;65234;-68
2022/09/23 10:24:05;;;;;;;;;;;;;;;20.43;67.91;97210.74;583718;242;68929;-68
2022/09/23 10:26:45;;;;;;;;;;;;;;;20.41;67.91;97211.02;576121;241;48516;-68
2022/09/23 10:29:32;;;;;;;;;;;;;;;20.40;67.42;97209.40;575961;246;65290;-68
2022/09/23 10:32:19;;;;;;;;;;;;;;;20.40;67.78;97212.07;575923;246;66915;-68
2022/09/23 10:34:48;;;;;;;;;;;;;;;20.41;68.02;97211.02;575836;246;68914;-69
2022/09/23 10:37:18;;;;;;;;;;;;;;;20.37;64.49;97205.38;575786;246;65378;-67
2022/09/23 10:48:14;;;;;;;;;;;;;;;20.37;66.89;97200.05;575949;246;69138;-68
2022/09/23 10:50:49;;;;;;;;;;;;;;;20.36;66.27;97200.33;575934;246;69181;-69
2022/09/23 10:53:24;;;;;;;;;;;;;;;20.36;65.90;97197.66;575903;246;65349;-69
2022/09/23 10:55:54;;;;;;;;;;;;;;;20.37;66.84;97197.38;575703;246;66677;-69
2022/09/23 10:58:25;;;;;;;;;;;;;;;20.37;63.30;97199.25;574692;245;68511;-71
2022/09/23 11:01:12;;;;;;;;;;;;;;;20.37;65.15;97189.37;576117;241;46350;-70
2022/09/23 11:03:58;;;;;;;;;;;;;;;20.35;66.35;97183.52;575812;244;68822;-70
2022/09/23 11:06:27;;;;;;;;;;;;;;;20.36;64.33;97189.65;575939;246;68726;-69
2022/09/23 11:09:05;;;;;;;;;;;;;;;20.35;64.30;97191.52;575682;246;63211;-69
2022/09/23 11:11:38;;;;;;;;;;;;;;;20.35;63.40;97183.52;575939;246;66588;-71
2022/09/23 11:14:07;;;;;;;;;;;;;;;20.36;64.63;97174.43;575984;246;68843;-70
2022/09/23 11:16:45;;;;;;;;;;;;;;;20.35;65.05;97182.69;575709;246;63157;-70
2022/09/23 11:19:31;;;;;;;;;;;;;;;20.35;64.53;97180.02;575172;245;67011;-69
2022/09/23 11:22:14;;;;;;;;;;;;;;;20.35;65.45;97172.02;573172;246;68831;-69
2022/09/23 11:24:47;;;;;;;;;;;;;;;20.35;65.35;97172.02;575952;246;65402;-70
2022/09/23 11:27:15;;;;;;;;;;;;;;;20.35;65.10;97180.02;575921;242;69059;-71
2022/09/23 11:29:45;;;;;;;;;;;;;;;20.33;64.29;97171.50;575936;246;66687;-71
2022/09/23 11:32:14;;;;;;;;;;;;;;;20.34;65.65;97173.88;575389;245;65085;-71
2022/09/23 11:34:56;;;;;;;;;;;;;;;20.35;65.94;97169.34;575956;246;69073;-70
2022/09/23 11:37:27;;;;;;;;;;;;;;;20.34;65.34;97165.08;575824;244;68755;-70
2022/09/23 11:39:56;;;;;;;;;;;;;;;20.33;65.62;97161.61;575923;246;65204;-69
2022/09/23 11:42:26;;;;;;;;;;;;;;;20.34;66.00;97149.06;575880;246;68753;-69
2022/09/23 11:44:57;;;;;;;;;;;;;;;20.33;66.28;97148.27;575927;244;68876;-70
2022/09/23 11:47:26;;;;;;;;;;;;;;;20.33;66.14;97152.81;575952;246;64968;-70
2022/09/23 11:49:55;;;;;;;;;;;;;;;20.33;66.44;97153.61;575879;246;68950;-70
2022/09/23 11:52:30;;;;;;;;;;;;;;;20.32;66.43;97148.52;575801;244;68706;-69
2022/09/23 11:55:15;;;;;;;;;;;;;;;20.32;66.38;97148.52;575945;246;63004;-69
2022/09/23 11:57:47;;;;;;;;;;;;;;;20.32;65.89;97143.18;575949;246;68887;-69
2022/09/23 12:00:16;;;;;;;;;;;;;;;20.32;67.11;97143.18;575837;245;66412;-70
2022/09/23 12:02:55;;;;;;;;;;;;;;;20.32;66.37;97145.84;575884;242;64984;-70
2022/09/23 12:05:24;;;;;;;;;;;;;;;20.32;66.45;97138.64;575877;246;66867;-72
2022/09/23 12:08:00;;;;;;;;;;;;;;;20.33;66.24;97134.92;575905;246;69000;-69
2022/09/23 12:10:31;;;;;;;;;;;;;;;20.32;64.18;97133.30;575397;245;45164;-69
2022/09/23 12:13:00;;;;;;;;;;;;;;;20.34;67.59;97133.84;575437;245;69003;-69
2022/09/23 12:15:38;;;;;;;;;;;;;;;20.33;66.37;97126.92;575787;246;68903;-70
2022/09/23 12:18:16;;;;;;;;;;;;;;;20.33;64.83;97123.45;575903;246;63054;-70
2022/09/23 12:20:54;;;;;;;;;;;;;;;20.34;66.95;97114.37;575676;246;67047;-72
2022/09/23 12:23:40;;;;;;;;;;;;;;;20.34;66.97;97122.38;575963;246;68499;-70
2022/09/23 12:26:16;;;;;;;;;;;;;;;20.34;67.36;97122.38;575977;246;65414;-70
2022/09/23 12:28:45;;;;;;;;;;;;;;;20.34;65.43;97119.70;575934;246;66205;-69
2022/09/23 12:31:14;;;;;;;;;;;;;;;20.35;66.26;97119.45;575981;246;68348;-70
2022/09/23 12:33:43;;;;;;;;;;;;;;;20.35;65.23;97121.30;575952;246;65129;-70
2022/09/23 12:36:11;;;;;;;;;;;;;;;20.35;64.22;97116.78;575869;244;66675;-70
2022/09/23 12:38:52;;;;;;;;;;;;;;;20.37;64.86;97119.17;575957;246;66669;-71
2022/09/23 12:41:24;;;;;;;;;;;;;;;20.38;65.75;97115.45;575931;246;65018;-71
2022/09/23 12:43:54;;;;;;;;;;;;;;;20.37;64.82;97122.64;575941;246;68748;-71
2022/09/23 12:46:26;;;;;;;;;;;;;;;20.38;67.02;97120.80;576004;246;68700;-71
2022/09/23 12:48:59;;;;;;;;;;;;;;;20.38;66.10;97115.45;575921;246;65083;-77
2022/09/23 12:51:25;;;;;;;;;;;;;;;20.38;66.96;97120.80;575949;242;66879;-79
2022/09/23 12:54:06;;;;;;;;;;;;;;;20.40;66.16;97126.65;575896;246;68885;-75
2022/09/23 12:56:36;;;;;;;;;;;;;;;20.38;65.65;97123.47;575948;246;65301;-74
2022/09/23 12:59:15;;;;;;;;;;;;;;;20.38;64.16;97121.59;575920;246;68966;-75
2022/09/23 13:01:40;;;;;;;;;;;;;;;20.39;63.31;97122.39;575836;245;66515;-76
2022/09/23 13:07:08;;;;;;;;;;;;;;;20.40;64.67;97110.64;575879;246;66735;-75
2022/09/23 13:09:42;;;;;;;;;;;;;;;20.40;66.06;97118.64;575932;246;68778;-74
2022/09/23 13:12:12;;;;;;;;;;;;;;;20.40;65.03;97118.64;575915;246;65477;-73
2022/09/23 13:14:43;;;;;;;;;;;;;;;20.40;66.56;97113.30;575771;246;69002;-71
2022/09/23 13:17:12;;;;;;;;;;;;;;;20.40;64.22;97121.31;575961;246;66493;-75